Haslet, TX (76052)

6:54 AM CST on December 18, 2014 (GMT -0600)
KTXHASLE10 | Change Station
CLOSE
Current Station
Personal Weather Station
Location: Haslet, TX
Elevation: 771 ft
Nearby Weather Stations

Elev 771 ft 32.93 °N, 97.37 °W | Updated 29 seconds ago

Light Drizzle
Light Drizzle Mist
42.1 °F
Feels Like 42 °F
N
0.0
Wind Variable Wind from East
Gusts 1.0 mph

Today
High -- | Low -- °F
--% Chance of Precip.
Yesterday
High -- | Low -- °F
Precip. -- in
7:26 AM 5:25 PM
Waning Crescent, 15% visible
Pressure 30.13 in
Visibility 1.5 miles
Clouds Overcast 300 ft
Windchill 42 °F
Dew Point 41 °F
Humidity 97%
Rainfall 0.00 in
Snow Depth Not available.
UV 0 out of 12
Pollen 8.20 out of 12
Air Quality Not available.
Flu Activity Not available.
METAR KAFW 181153Z 11004KT 1 1/2SM -DZ BR OVC003 06/06 A3011 RMK AO2 DZB44 SLP201 P0000 60000 70034 T00560056 10056 20050 55001

More Conditions Fewer Conditions

Pressure 30.13 in
Visibility 1.5 miles
Clouds Overcast 300 ft
Windchill 42 °F
Dew Point 41 °F
Humidity 97%
Rainfall 0.00 in
Snow Depth Not available.
UV 0 out of 12
Pollen 8.20 out of 12
Air Quality Not available.
Flu Activity Not available.
METAR KAFW 181153Z 11004KT 1 1/2SM -DZ BR OVC003 06/06 A3011 RMK AO2 DZB44 SLP201 P0000 60000 70034 T00560056 10056 20050 55001

More Conditions Fewer Conditions

Nowcast | as of 5:28 am CST on December 18, 2014

Areas of drizzle and fog will continue across much of north and central Texas through mid morning. Drizzle and fog will reduce visibilities down to 1 mile. A few locations could see visibility fall below 1 mile. If fog and heavy drizzle is encountered...remember to slow down and use low beam headlights. Temperatures this morning will remain cool...with readings in the upper 30s and mid 40s.

×

10-Day Weather Forecast

Almanac

Astronomy

Dec. 18, 2014 Rise Set
Actual Time
Civil Twilight
Nautical Twilight
Astronomical Twilight
Moon
Length of Visible Light
Length of Day
Tomorrow will be .
, % of the Moon is Illuminated

Today's Extremes

State Highs State Lows

Community

WunderPhotos

Upload Photos

1,778,923 photos uploaded!

WunderBlogs® & News

Nearby

Air Quality

  Air Quality AQ Index Pollutant
Not available.

Snow Depth

Station Depth Elevation

Earthquake Activity

City Distance Mag. Time & Date
Minimum magnitude displayed is 2.5.

Coastal Water Temperatures

Place Temperature

Nearby Weather Stations